sensor_id;sensor_type;location;lat;lon;timestamp;P1;durP1;ratioP1;P2;durP2;ratioP2
43511;SDS011;34054;52.100;5.116;2023-04-01T00:00:26;40.17;;;22.33;;
43511;SDS011;34054;52.100;5.116;2023-04-01T00:00:58;33.70;;;20.92;;
43511;SDS011;34054;52.100;5.116;2023-04-01T00:01:32;29.02;;;18.25;;
43511;SDS011;34054;52.100;5.116;2023-04-01T00:02:04;31.67;;;20.08;;
43511;SDS011;34054;52.100;5.116;2023-04-01T00:02:36;34.63;;;19.10;;
43511;SDS011;34054;52.100;5.116;2023-04-01T00:03:08;38.30;;;21.27;;
43511;SDS011;34054;52.100;5.116;2023-04-01T00:03:40;23.42;;;20.40;;
43511;SDS011;34054;52.100;5.116;2023-04-01T00:04:12;39.85;;;22.00;;
43511;SDS011;34054;52.100;5.116;2023-04-01T00:04:43;30.33;;;19.42;;
43511;SDS011;34054;52.100;5.116;2023-04-01T00:05:16;42.92;;;22.08;;
43511;SDS011;34054;52.100;5.116;2023-04-01T00:05:48;35.33;;;18.13;;
43511;SDS011;34054;52.100;5.116;2023-04-01T00:06:19;28.88;;;20.48;;
43511;SDS011;34054;52.100;5.116;2023-04-01T00:06:51;27.13;;;16.42;;
43511;SDS011;34054;52.100;5.116;2023-04-01T00:07:22;25.77;;;19.80;;
43511;SDS011;34054;52.100;5.116;2023-04-01T00:07:55;23.80;;;20.17;;
43511;SDS011;34054;52.100;5.116;2023-04-01T00:08:26;31.67;;;20.15;;
43511;SDS011;34054;52.100;5.116;2023-04-01T00:08:58;30.45;;;21.85;;
43511;SDS011;34054;52.100;5.116;2023-04-01T00:09:30;30.30;;;18.92;;
43511;SDS011;34054;52.100;5.116;2023-04-01T00:10:02;27.13;;;20.60;;
43511;SDS011;34054;52.100;5.116;2023-04-01T00:10:33;36.75;;;21.45;;
43511;SDS011;34054;52.100;5.116;2023-04-01T00:11:05;31.30;;;21.45;;
43511;SDS011;34054;52.100;5.116;2023-04-01T00:11:37;36.70;;;23.17;;
43511;SDS011;34054;52.100;5.116;2023-04-01T00:12:09;30.63;;;23.92;;
43511;SDS011;34054;52.100;5.116;2023-04-01T00:12:40;37.75;;;24.38;;
43511;SDS011;34054;52.100;5.116;2023-04-01T00:13:13;30.95;;;21.75;;
43511;SDS011;34054;52.100;5.116;2023-04-01T00:13:44;21.52;;;18.90;;
43511;SDS011;34054;52.100;5.116;2023-04-01T00:14:16;29.55;;;22.15;;
43511;SDS011;34054;52.100;5.116;2023-04-01T00:14:48;37.42;;;24.52;;
43511;SDS011;34054;52.100;5.116;2023-04-01T00:15:19;39.50;;;23.25;;
43511;SDS011;34054;52.100;5.116;2023-04-01T00:15:51;32.40;;;25.75;;
43511;SDS011;34054;52.100;5.116;2023-04-01T00:16:22;37.92;;;23.08;;
43511;SDS011;34054;52.100;5.116;2023-04-01T00:16:55;36.00;;;25.20;;
43511;SDS011;34054;52.100;5.116;2023-04-01T00:17:26;45.00;;;25.35;;
43511;SDS011;34054;52.100;5.116;2023-04-01T00:17:58;32.65;;;26.75;;
43511;SDS011;34054;52.100;5.116;2023-04-01T00:18:32;29.25;;;25.42;;
43511;SDS011;34054;52.100;5.116;2023-04-01T00:19:04;29.33;;;20.90;;
43511;SDS011;34054;52.100;5.116;2023-04-01T00:19:35;29.98;;;22.00;;
43511;SDS011;34054;52.100;5.116;2023-04-01T00:20:07;30.08;;;21.90;;
43511;SDS011;34054;52.100;5.116;2023-04-01T00:20:42;38.35;;;22.02;;
43511;SDS011;34054;52.100;5.116;2023-04-01T00:21:15;29.55;;;19.80;;
43511;SDS011;34054;52.100;5.116;2023-04-01T00:21:48;30.02;;;21.20;;
43511;SDS011;34054;52.100;5.116;2023-04-01T00:22:19;35.38;;;20.75;;
43511;SDS011;34054;52.100;5.116;2023-04-01T00:22:50;28.95;;;22.65;;
43511;SDS011;34054;52.100;5.116;2023-04-01T00:23:21;31.25;;;21.27;;
43511;SDS011;34054;52.100;5.116;2023-04-01T00:23:54;33.70;;;23.52;;
43511;SDS011;34054;52.100;5.116;2023-04-01T00:24:25;30.52;;;24.27;;
43511;SDS011;34054;52.100;5.116;2023-04-01T00:24:56;26.83;;;21.73;;
43511;SDS011;34054;52.100;5.116;2023-04-01T00:25:28;26.60;;;21.35;;
43511;SDS011;34054;52.100;5.116;2023-04-01T00:26:00;34.92;;;23.42;;
43511;SDS011;34054;52.100;5.116;2023-04-01T00:26:32;36.38;;;26.35;;
43511;SDS011;34054;52.100;5.116;2023-04-01T00:27:04;33.47;;;22.48;;
43511;SDS011;34054;52.100;5.116;2023-04-01T00:27:36;37.00;;;23.60;;
43511;SDS011;34054;52.100;5.116;2023-04-01T00:28:07;26.67;;;20.42;;
43511;SDS011;34054;52.100;5.116;2023-04-01T00:28:40;24.25;;;20.92;;
43511;SDS011;34054;52.100;5.116;2023-04-01T00:29:12;32.50;;;21.77;;
43511;SDS011;34054;52.100;5.116;2023-04-01T00:29:44;30.25;;;22.00;;
43511;SDS011;34054;52.100;5.116;2023-04-01T00:30:17;40.30;;;25.33;;
43511;SDS011;34054;52.100;5.116;2023-04-01T00:30:48;38.85;;;23.65;;
43511;SDS011;34054;52.100;5.116;2023-04-01T00:31:20;31.10;;;21.60;;
43511;SDS011;34054;52.100;5.116;2023-04-01T00:31:52;24.20;;;21.63;;
43511;SDS011;34054;52.100;5.116;2023-04-01T00:32:23;28.75;;;22.58;;
43511;SDS011;34054;52.100;5.116;2023-04-01T00:32:55;29.75;;;23.05;;
43511;SDS011;34054;52.100;5.116;2023-04-01T00:33:27;32.65;;;21.63;;
43511;SDS011;34054;52.100;5.116;2023-04-01T00:34:00;30.95;;;24.90;;
43511;SDS011;34054;52.100;5.116;2023-04-01T00:34:32;27.67;;;22.92;;
43511;SDS011;34054;52.100;5.116;2023-04-01T00:35:03;28.13;;;23.58;;
43511;SDS011;34054;52.100;5.116;2023-04-01T00:35:35;29.30;;;23.67;;
43511;SDS011;34054;52.100;5.116;2023-04-01T00:36:08;31.55;;;22.25;;
43511;SDS011;34054;52.100;5.116;2023-04-01T00:36:41;32.50;;;24.40;;
43511;SDS011;34054;52.100;5.116;2023-04-01T00:37:12;27.35;;;23.17;;
43511;SDS011;34054;52.100;5.116;2023-04-01T00:37:43;32.83;;;25.73;;
43511;SDS011;34054;52.100;5.116;2023-04-01T00:38:14;27.10;;;23.92;;
43511;SDS011;34054;52.100;5.116;2023-04-01T00:38:47;26.90;;;23.17;;
43511;SDS011;34054;52.100;5.116;2023-04-01T00:39:18;37.20;;;26.35;;
43511;SDS011;34054;52.100;5.116;2023-04-01T00:39:50;33.00;;;25.85;;
43511;SDS011;34054;52.100;5.116;2023-04-01T00:40:24;27.40;;;22.45;;
43511;SDS011;34054;52.100;5.116;2023-04-01T00:40:57;32.08;;;22.13;;
43511;SDS011;34054;52.100;5.116;2023-04-01T00:41:29;29.85;;;26.42;;
43511;SDS011;34054;52.100;5.116;2023-04-01T00:42:02;35.78;;;25.60;;
43511;SDS011;34054;52.100;5.116;2023-04-01T00:42:34;39.65;;;25.00;;
43511;SDS011;34054;52.100;5.116;2023-04-01T00:43:09;29.75;;;23.15;;
43511;SDS011;34054;52.100;5.116;2023-04-01T00:43:44;36.08;;;23.50;;
43511;SDS011;34054;52.100;5.116;2023-04-01T00:44:18;37.13;;;26.05;;
43511;SDS011;34054;52.100;5.116;2023-04-01T00:44:51;32.25;;;26.80;;
43511;SDS011;34054;52.100;5.116;2023-04-01T00:45:31;31.27;;;26.55;;
43511;SDS011;34054;52.100;5.116;2023-04-01T00:46:05;29.55;;;23.55;;
43511;SDS011;34054;52.100;5.116;2023-04-01T00:46:37;36.17;;;26.10;;
43511;SDS011;34054;52.100;5.116;2023-04-01T00:47:09;35.85;;;25.20;;
43511;SDS011;34054;52.100;5.116;2023-04-01T00:47:40;31.63;;;26.73;;
43511;SDS011;34054;52.100;5.116;2023-04-01T00:48:13;33.53;;;26.27;;
43511;SDS011;34054;52.100;5.116;2023-04-01T00:48:47;33.97;;;28.17;;
43511;SDS011;34054;52.100;5.116;2023-04-01T00:49:23;29.65;;;24.20;;
43511;SDS011;34054;52.100;5.116;2023-04-01T00:49:57;35.22;;;26.42;;
43511;SDS011;34054;52.100;5.116;2023-04-01T00:50:30;32.90;;;28.92;;
43511;SDS011;34054;52.100;5.116;2023-04-01T00:51:03;30.08;;;23.02;;
43511;SDS011;34054;52.100;5.116;2023-04-01T00:51:37;31.58;;;27.60;;
43511;SDS011;34054;52.100;5.116;2023-04-01T00:52:11;28.55;;;25.48;;
43511;SDS011;34054;52.100;5.116;2023-04-01T00:52:46;26.95;;;24.40;;
43511;SDS011;34054;52.100;5.116;2023-04-01T00:53:17;29.30;;;25.52;;
43511;SDS011;34054;52.100;5.116;2023-04-01T00:53:52;30.83;;;24.83;;
43511;SDS011;34054;52.100;5.116;2023-04-01T00:54:24;27.30;;;23.55;;
43511;SDS011;34054;52.100;5.116;2023-04-01T00:54:57;27.55;;;24.63;;
43511;SDS011;34054;52.100;5.116;2023-04-01T00:55:33;24.13;;;21.52;;
43511;SDS011;34054;52.100;5.116;2023-04-01T00:56:10;30.95;;;22.45;;
43511;SDS011;34054;52.100;5.116;2023-04-01T00:56:45;32.72;;;24.10;;
43511;SDS011;34054;52.100;5.116;2023-04-01T00:57:21;31.42;;;25.08;;
43511;SDS011;34054;52.100;5.116;2023-04-01T00:57:59;27.70;;;24.92;;
43511;SDS011;34054;52.100;5.116;2023-04-01T00:58:33;29.30;;;24.98;;
43511;SDS011;34054;52.100;5.116;2023-04-01T00:59:10;27.80;;;23.27;;
43511;SDS011;34054;52.100;5.116;2023-04-01T00:59:47;29.08;;;25.75;;
43511;SDS011;34054;52.100;5.116;2023-04-01T01:00:21;21.48;;;19.38;;
43511;SDS011;34054;52.100;5.116;2023-04-01T01:00:52;25.80;;;23.05;;
43511;SDS011;34054;52.100;5.116;2023-04-01T01:01:26;26.55;;;23.70;;
43511;SDS011;34054;52.100;5.116;2023-04-01T01:02:00;33.42;;;24.98;;
43511;SDS011;34054;52.100;5.116;2023-04-01T01:02:33;29.85;;;23.58;;
43511;SDS011;34054;52.100;5.116;2023-04-01T01:03:06;36.03;;;25.60;;
43511;SDS011;34054;52.100;5.116;2023-04-01T01:03:38;26.45;;;23.73;;
43511;SDS011;34054;52.100;5.116;2023-04-01T01:04:20;30.27;;;23.50;;
43511;SDS011;34054;52.100;5.116;2023-04-01T01:04:54;28.48;;;24.13;;
43511;SDS011;34054;52.100;5.116;2023-04-01T01:05:31;26.40;;;23.60;;
43511;SDS011;34054;52.100;5.116;2023-04-01T01:06:17;26.65;;;21.75;;
43511;SDS011;34054;52.100;5.116;2023-04-01T01:07:00;27.00;;;22.45;;
43511;SDS011;34054;52.100;5.116;2023-04-01T01:07:44;28.10;;;23.75;;
43511;SDS011;34054;52.100;5.116;2023-04-01T01:08:28;25.13;;;22.55;;
43511;SDS011;34054;52.100;5.116;2023-04-01T01:09:20;26.02;;;20.38;;
43511;SDS011;34054;52.100;5.116;2023-04-01T01:10:00;27.02;;;23.25;;
43511;SDS011;34054;52.100;5.116;2023-04-01T01:10:34;25.52;;;22.52;;
43511;SDS011;34054;52.100;5.116;2023-04-01T01:11:09;33.03;;;23.85;;
43511;SDS011;34054;52.100;5.116;2023-04-01T01:11:42;25.42;;;22.70;;
43511;SDS011;34054;52.100;5.116;2023-04-01T01:12:19;25.05;;;19.02;;
43511;SDS011;34054;52.100;5.116;2023-04-01T01:12:59;22.92;;;18.63;;
43511;SDS011;34054;52.100;5.116;2023-04-01T01:13:38;23.08;;;18.23;;
43511;SDS011;34054;52.100;5.116;2023-04-01T01:14:22;20.75;;;16.73;;
43511;SDS011;34054;52.100;5.116;2023-04-01T01:15:05;15.82;;;14.05;;
43511;SDS011;34054;52.100;5.116;2023-04-01T01:16:17;25.98;;;16.67;;
43511;SDS011;34054;52.100;5.116;2023-04-01T01:16:58;23.25;;;15.52;;
43511;SDS011;34054;52.100;5.116;2023-04-01T01:17:38;18.48;;;14.45;;
43511;SDS011;34054;52.100;5.116;2023-04-01T01:18:19;16.85;;;14.82;;
43511;SDS011;34054;52.100;5.116;2023-04-01T01:19:01;15.90;;;14.43;;
43511;SDS011;34054;52.100;5.116;2023-04-01T01:19:50;22.50;;;15.02;;
43511;SDS011;34054;52.100;5.116;2023-04-01T01:20:37;33.33;;;20.83;;
43511;SDS011;34054;52.100;5.116;2023-04-01T01:22:02;24.65;;;16.85;;
43511;SDS011;34054;52.100;5.116;2023-04-01T01:22:52;28.85;;;18.52;;
43511;SDS011;34054;52.100;5.116;2023-04-01T01:24:48;19.83;;;17.77;;
43511;SDS011;34054;52.100;5.116;2023-04-01T01:25:32;25.60;;;16.77;;
43511;SDS011;34054;52.100;5.116;2023-04-01T01:26:30;28.88;;;19.55;;
43511;SDS011;34054;52.100;5.116;2023-04-01T01:27:13;18.17;;;15.90;;
43511;SDS011;34054;52.100;5.116;2023-04-01T01:27:51;22.52;;;17.35;;
43511;SDS011;34054;52.100;5.116;2023-04-01T01:28:33;36.72;;;17.38;;
43511;SDS011;34054;52.100;5.116;2023-04-01T01:29:25;20.98;;;15.25;;
43511;SDS011;34054;52.100;5.116;2023-04-01T01:30:25;30.30;;;17.33;;
43511;SDS011;34054;52.100;5.116;2023-04-01T01:31:08;21.50;;;15.32;;
43511;SDS011;34054;52.100;5.116;2023-04-01T01:31:44;21.98;;;17.17;;
43511;SDS011;34054;52.100;5.116;2023-04-01T01:32:30;16.65;;;14.25;;
43511;SDS011;34054;52.100;5.116;2023-04-01T01:34:12;26.90;;;16.83;;
43511;SDS011;34054;52.100;5.116;2023-04-01T01:34:51;20.00;;;16.75;;
43511;SDS011;34054;52.100;5.116;2023-04-01T01:35:31;18.85;;;15.57;;
43511;SDS011;34054;52.100;5.116;2023-04-01T01:36:07;23.48;;;16.00;;
43511;SDS011;34054;52.100;5.116;2023-04-01T01:36:42;26.27;;;17.00;;
43511;SDS011;34054;52.100;5.116;2023-04-01T01:37:21;22.65;;;14.25;;
43511;SDS011;34054;52.100;5.116;2023-04-01T01:37:56;19.17;;;15.13;;
43511;SDS011;34054;52.100;5.116;2023-04-01T01:38:31;24.65;;;15.65;;
43511;SDS011;34054;52.100;5.116;2023-04-01T01:39:06;16.95;;;12.40;;
43511;SDS011;34054;52.100;5.116;2023-04-01T01:39:40;19.35;;;15.38;;
43511;SDS011;34054;52.100;5.116;2023-04-01T01:40:15;19.15;;;13.32;;
43511;SDS011;34054;52.100;5.116;2023-04-01T01:40:48;18.10;;;16.17;;
43511;SDS011;34054;52.100;5.116;2023-04-01T01:41:24;26.05;;;15.07;;
43511;SDS011;34054;52.100;5.116;2023-04-01T01:42:00;20.27;;;17.05;;
43511;SDS011;34054;52.100;5.116;2023-04-01T01:42:34;20.17;;;15.73;;
43511;SDS011;34054;52.100;5.116;2023-04-01T01:43:10;21.00;;;13.32;;
43511;SDS011;34054;52.100;5.116;2023-04-01T01:43:46;20.98;;;12.90;;
43511;SDS011;34054;52.100;5.116;2023-04-01T01:44:19;20.52;;;14.48;;
43511;SDS011;34054;52.100;5.116;2023-04-01T01:44:52;15.00;;;11.70;;
43511;SDS011;34054;52.100;5.116;2023-04-01T01:45:28;19.63;;;16.55;;
43511;SDS011;34054;52.100;5.116;2023-04-01T01:46:03;23.25;;;15.40;;
43511;SDS011;34054;52.100;5.116;2023-04-01T01:46:38;28.85;;;15.52;;
43511;SDS011;34054;52.100;5.116;2023-04-01T01:47:12;18.42;;;16.30;;
43511;SDS011;34054;52.100;5.116;2023-04-01T01:47:45;17.80;;;14.85;;
43511;SDS011;34054;52.100;5.116;2023-04-01T01:48:19;20.15;;;13.77;;
43511;SDS011;34054;52.100;5.116;2023-04-01T01:48:51;15.13;;;13.43;;
43511;SDS011;34054;52.100;5.116;2023-04-01T01:49:24;14.85;;;13.18;;
43511;SDS011;34054;52.100;5.116;2023-04-01T01:49:56;17.83;;;12.95;;
43511;SDS011;34054;52.100;5.116;2023-04-01T01:50:28;19.38;;;13.10;;
43511;SDS011;34054;52.100;5.116;2023-04-01T01:51:01;20.92;;;15.35;;
43511;SDS011;34054;52.100;5.116;2023-04-01T01:51:34;16.50;;;13.27;;
43511;SDS011;34054;52.100;5.116;2023-04-01T01:52:06;18.10;;;14.13;;
43511;SDS011;34054;52.100;5.116;2023-04-01T01:52:37;16.27;;;13.18;;
43511;SDS011;34054;52.100;5.116;2023-04-01T01:53:09;18.75;;;15.02;;
43511;SDS011;34054;52.100;5.116;2023-04-01T01:53:44;17.83;;;13.25;;
43511;SDS011;34054;52.100;5.116;2023-04-01T01:54:16;17.83;;;13.00;;
43511;SDS011;34054;52.100;5.116;2023-04-01T01:54:48;13.70;;;12.25;;
43511;SDS011;34054;52.100;5.116;2023-04-01T01:55:23;21.95;;;14.85;;
43511;SDS011;34054;52.100;5.116;2023-04-01T01:55:58;21.65;;;15.85;;
43511;SDS011;34054;52.100;5.116;2023-04-01T01:56:29;23.10;;;13.82;;
43511;SDS011;34054;52.100;5.116;2023-04-01T01:57:03;22.17;;;15.25;;
43511;SDS011;34054;52.100;5.116;2023-04-01T01:57:37;16.83;;;13.63;;
43511;SDS011;34054;52.100;5.116;2023-04-01T01:58:11;22.45;;;15.05;;
43511;SDS011;34054;52.100;5.116;2023-04-01T01:58:48;16.45;;;12.85;;
43511;SDS011;34054;52.100;5.116;2023-04-01T01:59:22;24.50;;;17.88;;
43511;SDS011;34054;52.100;5.116;2023-04-01T01:59:58;21.00;;;14.27;;
43511;SDS011;34054;52.100;5.116;2023-04-01T02:00:33;20.10;;;14.75;;
43511;SDS011;34054;52.100;5.116;2023-04-01T02:01:05;24.30;;;17.73;;
43511;SDS011;34054;52.100;5.116;2023-04-01T02:01:42;16.52;;;11.15;;
43511;SDS011;34054;52.100;5.116;2023-04-01T02:02:16;19.75;;;12.60;;
43511;SDS011;34054;52.100;5.116;2023-04-01T02:02:49;20.48;;;14.80;;
43511;SDS011;34054;52.100;5.116;2023-04-01T02:03:21;28.05;;;15.18;;
43511;SDS011;34054;52.100;5.116;2023-04-01T02:03:56;16.67;;;14.02;;
43511;SDS011;34054;52.100;5.116;2023-04-01T02:04:29;20.30;;;13.77;;
43511;SDS011;34054;52.100;5.116;2023-04-01T02:05:00;15.82;;;11.88;;
43511;SDS011;34054;52.100;5.116;2023-04-01T02:05:34;22.40;;;14.23;;
43511;SDS011;34054;52.100;5.116;2023-04-01T02:06:09;23.05;;;15.75;;
43511;SDS011;34054;52.100;5.116;2023-04-01T02:06:42;21.40;;;13.73;;
43511;SDS011;34054;52.100;5.116;2023-04-01T02:07:21;16.27;;;13.52;;
43511;SDS011;34054;52.100;5.116;2023-04-01T02:07:59;14.90;;;11.82;;
43511;SDS011;34054;52.100;5.116;2023-04-01T02:08:36;17.52;;;13.13;;
43511;SDS011;34054;52.100;5.116;2023-04-01T02:09:12;22.52;;;11.07;;
43511;SDS011;34054;52.100;5.116;2023-04-01T02:09:44;16.40;;;11.93;;
43511;SDS011;34054;52.100;5.116;2023-04-01T02:10:15;27.65;;;14.27;;
43511;SDS011;34054;52.100;5.116;2023-04-01T02:10:52;20.83;;;13.25;;
43511;SDS011;34054;52.100;5.116;2023-04-01T02:11:28;25.35;;;13.13;;
43511;SDS011;34054;52.100;5.116;2023-04-01T02:12:07;21.20;;;12.32;;
43511;SDS011;34054;52.100;5.116;2023-04-01T02:12:40;13.55;;;11.73;;
43511;SDS011;34054;52.100;5.116;2023-04-01T02:13:18;14.50;;;10.82;;
43511;SDS011;34054;52.100;5.116;2023-04-01T02:13:55;17.40;;;11.32;;
43511;SDS011;34054;52.100;5.116;2023-04-01T02:14:34;26.17;;;15.20;;
43511;SDS011;34054;52.100;5.116;2023-04-01T02:15:11;14.95;;;12.25;;
43511;SDS011;34054;52.100;5.116;2023-04-01T02:15:46;25.75;;;13.77;;
43511;SDS011;34054;52.100;5.116;2023-04-01T02:16:22;14.23;;;10.38;;
43511;SDS011;34054;52.100;5.116;2023-04-01T02:17:01;23.80;;;14.77;;
43511;SDS011;34054;52.100;5.116;2023-04-01T02:17:37;22.80;;;10.57;;
43511;SDS011;34054;52.100;5.116;2023-04-01T02:18:14;10.43;;;9.50;;
43511;SDS011;34054;52.100;5.116;2023-04-01T02:18:48;25.25;;;14.30;;
43511;SDS011;34054;52.100;5.116;2023-04-01T02:19:24;21.30;;;13.68;;
43511;SDS011;34054;52.100;5.116;2023-04-01T02:20:04;18.75;;;13.48;;
43511;SDS011;34054;52.100;5.116;2023-04-01T02:20:39;20.45;;;13.80;;
43511;SDS011;34054;52.100;5.116;2023-04-01T02:21:13;20.23;;;12.10;;
43511;SDS011;34054;52.100;5.116;2023-04-01T02:21:49;26.25;;;13.93;;
43511;SDS011;34054;52.100;5.116;2023-04-01T02:22:24;20.63;;;12.50;;
43511;SDS011;34054;52.100;5.116;2023-04-01T02:22:57;22.42;;;13.00;;
43511;SDS011;34054;52.100;5.116;2023-04-01T02:23:31;21.30;;;14.80;;
43511;SDS011;34054;52.100;5.116;2023-04-01T02:24:08;17.60;;;12.05;;
43511;SDS011;34054;52.100;5.116;2023-04-01T02:24:43;24.88;;;13.48;;
43511;SDS011;34054;52.100;5.116;2023-04-01T02:25:17;23.48;;;13.70;;
43511;SDS011;34054;52.100;5.116;2023-04-01T02:25:51;27.95;;;14.10;;
43511;SDS011;34054;52.100;5.116;2023-04-01T02:26:23;15.85;;;13.68;;
43511;SDS011;34054;52.100;5.116;2023-04-01T02:26:57;16.65;;;12.77;;
43511;SDS011;34054;52.100;5.116;2023-04-01T02:27:28;16.98;;;14.82;;
43511;SDS011;34054;52.100;5.116;2023-04-01T02:28:03;20.10;;;12.05;;
43511;SDS011;34054;52.100;5.116;2023-04-01T02:28:37;17.55;;;11.20;;
43511;SDS011;34054;52.100;5.116;2023-04-01T02:29:10;23.35;;;12.48;;
43511;SDS011;34054;52.100;5.116;2023-04-01T02:29:44;22.77;;;13.20;;
43511;SDS011;34054;52.100;5.116;2023-04-01T02:30:16;21.90;;;13.70;;
43511;SDS011;34054;52.100;5.116;2023-04-01T02:30:48;23.45;;;14.68;;
43511;SDS011;34054;52.100;5.116;2023-04-01T02:31:22;18.02;;;13.77;;
43511;SDS011;34054;52.100;5.116;2023-04-01T02:31:54;19.25;;;12.88;;
43511;SDS011;34054;52.100;5.116;2023-04-01T02:32:26;21.27;;;14.35;;
43511;SDS011;34054;52.100;5.116;2023-04-01T02:33:01;20.65;;;12.18;;
43511;SDS011;34054;52.100;5.116;2023-04-01T02:33:34;20.60;;;12.95;;
43511;SDS011;34054;52.100;5.116;2023-04-01T02:34:06;20.42;;;14.35;;
43511;SDS011;34054;52.100;5.116;2023-04-01T02:34:38;28.58;;;14.48;;
43511;SDS011;34054;52.100;5.116;2023-04-01T02:35:10;20.52;;;12.60;;
43511;SDS011;34054;52.100;5.116;2023-04-01T02:35:44;19.95;;;13.38;;
43511;SDS011;34054;52.100;5.116;2023-04-01T02:36:18;23.50;;;13.23;;
43511;SDS011;34054;52.100;5.116;2023-04-01T02:36:49;17.83;;;11.63;;
43511;SDS011;34054;52.100;5.116;2023-04-01T02:37:21;24.35;;;11.23;;
43511;SDS011;34054;52.100;5.116;2023-04-01T02:37:54;14.35;;;10.90;;
43511;SDS011;34054;52.100;5.116;2023-04-01T02:38:26;19.35;;;13.45;;
43511;SDS011;34054;52.100;5.116;2023-04-01T02:38:58;18.95;;;12.55;;
43511;SDS011;34054;52.100;5.116;2023-04-01T02:39:32;12.43;;;11.15;;
43511;SDS011;34054;52.100;5.116;2023-04-01T02:40:05;15.50;;;11.25;;
43511;SDS011;34054;52.100;5.116;2023-04-01T02:40:45;14.52;;;10.73;;
43511;SDS011;34054;52.100;5.116;2023-04-01T02:41:18;13.77;;;10.73;;
43511;SDS011;34054;52.100;5.116;2023-04-01T02:41:51;16.42;;;12.35;;
43511;SDS011;34054;52.100;5.116;2023-04-01T02:42:23;16.98;;;10.32;;
43511;SDS011;34054;52.100;5.116;2023-04-01T02:42:54;13.77;;;11.40;;
43511;SDS011;34054;52.100;5.116;2023-04-01T02:43:26;21.33;;;13.75;;
43511;SDS011;34054;52.100;5.116;2023-04-01T02:43:58;16.67;;;11.57;;
43511;SDS011;34054;52.100;5.116;2023-04-01T02:44:30;14.40;;;11.45;;
43511;SDS011;34054;52.100;5.116;2023-04-01T02:45:02;14.43;;;9.50;;
43511;SDS011;34054;52.100;5.116;2023-04-01T02:45:35;19.77;;;11.63;;
43511;SDS011;34054;52.100;5.116;2023-04-01T02:46:06;12.27;;;10.32;;
43511;SDS011;34054;52.100;5.116;2023-04-01T02:46:38;13.32;;;11.20;;
43511;SDS011;34054;52.100;5.116;2023-04-01T02:47:10;15.10;;;10.75;;
43511;SDS011;34054;52.100;5.116;2023-04-01T02:47:41;13.50;;;10.07;;
43511;SDS011;34054;52.100;5.116;2023-04-01T02:48:13;15.68;;;10.75;;
43511;SDS011;34054;52.100;5.116;2023-04-01T02:48:44;15.07;;;9.90;;
43511;SDS011;34054;52.100;5.116;2023-04-01T02:49:17;14.43;;;9.48;;
43511;SDS011;34054;52.100;5.116;2023-04-01T02:49:48;19.38;;;10.90;;
43511;SDS011;34054;52.100;5.116;2023-04-01T02:50:19;10.25;;;8.75;;
43511;SDS011;34054;52.100;5.116;2023-04-01T02:50:52;15.43;;;9.65;;
43511;SDS011;34054;52.100;5.116;2023-04-01T02:51:25;14.80;;;8.13;;
43511;SDS011;34054;52.100;5.116;2023-04-01T02:51:56;13.10;;;10.38;;
43511;SDS011;34054;52.100;5.116;2023-04-01T02:52:28;13.65;;;9.35;;
43511;SDS011;34054;52.100;5.116;2023-04-01T02:53:00;12.43;;;8.55;;
43511;SDS011;34054;52.100;5.116;2023-04-01T02:53:33;16.65;;;8.90;;
43511;SDS011;34054;52.100;5.116;2023-04-01T02:54:04;13.70;;;9.27;;
43511;SDS011;34054;52.100;5.116;2023-04-01T02:54:36;9.55;;;8.43;;
43511;SDS011;34054;52.100;5.116;2023-04-01T02:55:08;9.32;;;8.00;;
43511;SDS011;34054;52.100;5.116;2023-04-01T02:55:40;12.50;;;8.27;;
43511;SDS011;34054;52.100;5.116;2023-04-01T02:56:12;13.27;;;9.05;;
43511;SDS011;34054;52.100;5.116;2023-04-01T02:56:43;10.65;;;9.48;;
43511;SDS011;34054;52.100;5.116;2023-04-01T02:57:14;8.55;;;7.78;;
43511;SDS011;34054;52.100;5.116;2023-04-01T02:57:47;13.00;;;8.80;;
43511;SDS011;34054;52.100;5.116;2023-04-01T02:58:18;14.82;;;10.50;;
43511;SDS011;34054;52.100;5.116;2023-04-01T02:58:50;11.63;;;9.10;;
43511;SDS011;34054;52.100;5.116;2023-04-01T02:59:22;15.90;;;7.90;;
43511;SDS011;34054;52.100;5.116;2023-04-01T02:59:53;13.82;;;9.10;;
43511;SDS011;34054;52.100;5.116;2023-04-01T03:00:24;10.75;;;7.75;;
43511;SDS011;34054;52.100;5.116;2023-04-01T03:00:57;10.85;;;8.02;;
43511;SDS011;34054;52.100;5.116;2023-04-01T03:01:28;10.48;;;9.07;;
43511;SDS011;34054;52.100;5.116;2023-04-01T03:02:00;11.38;;;8.85;;
43511;SDS011;34054;52.100;5.116;2023-04-01T03:02:32;10.98;;;8.55;;
43511;SDS011;34054;52.100;5.116;2023-04-01T03:03:03;11.32;;;8.38;;
43511;SDS011;34054;52.100;5.116;2023-04-01T03:03:34;9.85;;;8.55;;
43511;SDS011;34054;52.100;5.116;2023-04-01T03:04:06;11.32;;;9.80;;
43511;SDS011;34054;52.100;5.116;2023-04-01T03:04:38;12.32;;;9.70;;
43511;SDS011;34054;52.100;5.116;2023-04-01T03:05:09;12.23;;;10.50;;
43511;SDS011;34054;52.100;5.116;2023-04-01T03:05:41;17.75;;;10.55;;
43511;SDS011;34054;52.100;5.116;2023-04-01T03:06:14;13.02;;;9.80;;
43511;SDS011;34054;52.100;5.116;2023-04-01T03:06:48;10.65;;;9.15;;
43511;SDS011;34054;52.100;5.116;2023-04-01T03:07:19;14.75;;;9.30;;
43511;SDS011;34054;52.100;5.116;2023-04-01T03:07:51;14.25;;;9.80;;
43511;SDS011;34054;52.100;5.116;2023-04-01T03:08:22;10.85;;;9.75;;
43511;SDS011;34054;52.100;5.116;2023-04-01T03:08:54;12.90;;;10.48;;
43511;SDS011;34054;52.100;5.116;2023-04-01T03:09:26;10.75;;;9.60;;
43511;SDS011;34054;52.100;5.116;2023-04-01T03:09:57;15.50;;;9.80;;
43511;SDS011;34054;52.100;5.116;2023-04-01T03:10:28;15.57;;;11.18;;
43511;SDS011;34054;52.100;5.116;2023-04-01T03:11:00;11.48;;;10.25;;
43511;SDS011;34054;52.100;5.116;2023-04-01T03:11:32;16.67;;;12.23;;
43511;SDS011;34054;52.100;5.116;2023-04-01T03:12:03;13.93;;;9.25;;
43511;SDS011;34054;52.100;5.116;2023-04-01T03:12:35;12.80;;;11.35;;
43511;SDS011;34054;52.100;5.116;2023-04-01T03:13:08;14.55;;;11.68;;
43511;SDS011;34054;52.100;5.116;2023-04-01T03:13:40;13.15;;;11.80;;
43511;SDS011;34054;52.100;5.116;2023-04-01T03:14:11;12.98;;;10.82;;
43511;SDS011;34054;52.100;5.116;2023-04-01T03:14:43;14.13;;;11.30;;
43511;SDS011;34054;52.100;5.116;2023-04-01T03:15:15;13.43;;;10.25;;
43511;SDS011;34054;52.100;5.116;2023-04-01T03:15:46;15.05;;;11.18;;
43511;SDS011;34054;52.100;5.116;2023-04-01T03:16:19;16.63;;;12.50;;
43511;SDS011;34054;52.100;5.116;2023-04-01T03:16:51;13.18;;;11.02;;
43511;SDS011;34054;52.100;5.116;2023-04-01T03:17:22;17.88;;;12.43;;
43511;SDS011;34054;52.100;5.116;2023-04-01T03:17:54;12.55;;;10.23;;
43511;SDS011;34054;52.100;5.116;2023-04-01T03:18:25;16.83;;;12.63;;
43511;SDS011;34054;52.100;5.116;2023-04-01T03:18:58;15.65;;;10.45;;
43511;SDS011;34054;52.100;5.116;2023-04-01T03:19:30;19.63;;;11.95;;
43511;SDS011;34054;52.100;5.116;2023-04-01T03:20:01;15.32;;;13.05;;
43511;SDS011;34054;52.100;5.116;2023-04-01T03:20:35;15.63;;;13.85;;
43511;SDS011;34054;52.100;5.116;2023-04-01T03:21:15;14.02;;;11.75;;
43511;SDS011;34054;52.100;5.116;2023-04-01T03:21:50;13.77;;;11.52;;
43511;SDS011;34054;52.100;5.116;2023-04-01T03:22:21;15.68;;;12.13;;
43511;SDS011;34054;52.100;5.116;2023-04-01T03:22:53;13.65;;;10.60;;
43511;SDS011;34054;52.100;5.116;2023-04-01T03:23:25;17.23;;;12.45;;
43511;SDS011;34054;52.100;5.116;2023-04-01T03:23:56;16.88;;;11.35;;